createdAt,value
2023-12-18T00:01:29.406Z,0.69
2023-12-18T00:03:56.639Z,0.69
2023-12-18T00:06:23.972Z,0.69
2023-12-18T00:08:51.054Z,0.69
2023-12-18T00:11:18.049Z,0.69
2023-12-18T00:13:45.225Z,0.69
2023-12-18T00:16:13.413Z,0.70
2023-12-18T00:18:40.733Z,0.72
2023-12-18T00:21:07.828Z,0.74
2023-12-18T00:23:35.059Z,0.75
2023-12-18T00:26:02.194Z,0.76
2023-12-18T00:28:29.331Z,0.76
2023-12-18T00:30:56.700Z,0.76
2023-12-18T00:33:24.152Z,0.77
2023-12-18T00:35:51.681Z,0.77
2023-12-18T00:38:18.773Z,0.76
2023-12-18T00:40:45.842Z,0.76
2023-12-18T00:43:13.028Z,0.76
2023-12-18T00:45:40.201Z,0.76
2023-12-18T00:48:07.761Z,0.75
2023-12-18T00:50:34.943Z,0.75
2023-12-18T00:53:02.066Z,0.74
2023-12-18T00:55:29.361Z,0.74
2023-12-18T00:57:56.761Z,0.72
2023-12-18T01:00:24.190Z,0.71
2023-12-18T01:02:51.223Z,0.71
2023-12-18T01:05:18.312Z,0.71
2023-12-18T01:07:45.405Z,0.72
2023-12-18T01:10:12.627Z,0.73
2023-12-18T01:12:39.719Z,0.76
2023-12-18T01:15:07.330Z,0.79
2023-12-18T01:17:36.457Z,0.80
2023-12-18T01:20:06.281Z,0.79
2023-12-18T01:22:33.761Z,0.79
2023-12-18T01:25:01.526Z,0.78
2023-12-18T01:27:28.705Z,0.79
2023-12-18T01:29:55.964Z,0.81
2023-12-18T01:32:23.375Z,0.83
2023-12-18T01:34:50.597Z,0.85
2023-12-18T01:37:17.585Z,0.86
2023-12-18T01:39:44.805Z,0.86
2023-12-18T01:42:12.387Z,0.84
2023-12-18T01:44:39.674Z,0.84
2023-12-18T01:47:08.249Z,0.82
2023-12-18T01:49:36.644Z,0.81
2023-12-18T01:52:04.922Z,0.80
2023-12-18T01:54:32.591Z,0.82
2023-12-18T01:57:01.157Z,0.82
2023-12-18T01:59:28.909Z,0.81
2023-12-18T02:01:56.118Z,0.80
2023-12-18T02:04:23.572Z,0.81
2023-12-18T02:06:50.703Z,0.82
2023-12-18T02:09:17.923Z,0.83
2023-12-18T02:11:45.752Z,0.84
2023-12-18T02:14:13.542Z,0.87
2023-12-18T02:16:41.611Z,0.89
2023-12-18T02:19:25.889Z,0.90
2023-12-18T02:21:55.462Z,0.90
2023-12-18T02:24:23.062Z,0.89
2023-12-18T02:26:51.554Z,0.89
2023-12-18T02:29:18.785Z,0.89
2023-12-18T02:31:46.093Z,0.90
2023-12-18T02:34:13.512Z,0.91
2023-12-18T02:36:40.743Z,0.93
2023-12-18T02:39:07.991Z,0.92
2023-12-18T02:41:35.250Z,0.91
2023-12-18T02:44:02.778Z,0.92
2023-12-18T02:46:29.892Z,0.93
2023-12-18T02:48:56.891Z,0.92
2023-12-18T02:51:24.075Z,0.92
2023-12-18T02:53:51.345Z,0.93
2023-12-18T02:56:18.524Z,0.95
2023-12-18T02:58:45.778Z,0.98
2023-12-18T03:01:13.039Z,0.99
2023-12-18T03:03:40.162Z,0.98
2023-12-18T03:06:07.452Z,0.98
2023-12-18T03:08:35.101Z,0.98
2023-12-18T03:11:02.997Z,1.00
2023-12-18T03:13:30.229Z,1.00
2023-12-18T03:15:58.392Z,0.97
2023-12-18T03:18:25.725Z,0.94
2023-12-18T03:20:52.860Z,0.91
2023-12-18T03:23:20.000Z,0.92
2023-12-18T03:25:47.426Z,0.92
2023-12-18T03:28:16.735Z,0.91
2023-12-18T03:30:44.685Z,0.90
2023-12-18T03:33:12.268Z,0.91
2023-12-18T03:35:39.362Z,0.91
2023-12-18T03:38:06.716Z,0.92
2023-12-18T03:40:33.896Z,0.93
2023-12-18T03:43:01.310Z,0.94
2023-12-18T03:45:28.376Z,0.96
2023-12-18T03:47:55.464Z,0.98
2023-12-18T03:50:22.478Z,1.01
2023-12-18T03:52:49.617Z,1.02
2023-12-18T03:55:17.260Z,1.04
2023-12-18T03:57:44.759Z,1.07
2023-12-18T04:00:12.754Z,1.09
2023-12-18T04:02:40.041Z,1.11
2023-12-18T04:05:07.711Z,1.12
2023-12-18T04:07:34.909Z,1.14
2023-12-18T04:10:02.041Z,1.16
2023-12-18T04:12:29.292Z,1.17
2023-12-18T04:14:56.315Z,1.13
2023-12-18T04:17:23.768Z,1.12
2023-12-18T04:19:51.341Z,1.14
2023-12-18T04:22:18.543Z,1.16
2023-12-18T04:24:45.722Z,1.18
2023-12-18T04:27:12.950Z,1.20
2023-12-18T04:29:40.212Z,1.20
2023-12-18T04:32:07.588Z,1.21
2023-12-18T04:34:35.377Z,1.21
2023-12-18T04:37:04.042Z,1.21
2023-12-18T04:39:33.564Z,1.22
2023-12-18T04:42:00.773Z,1.22
2023-12-18T04:44:29.028Z,1.23
2023-12-18T04:46:56.677Z,1.24
2023-12-18T04:49:25.194Z,1.25
2023-12-18T04:51:52.515Z,1.23
2023-12-18T04:54:19.759Z,1.27
2023-12-18T04:56:47.114Z,1.24
2023-12-18T04:59:14.882Z,1.23
2023-12-18T05:01:41.930Z,1.20
2023-12-18T05:04:09.304Z,1.19
2023-12-18T05:06:36.494Z,1.20
2023-12-18T05:09:03.826Z,1.19
2023-12-18T05:11:31.228Z,1.20
2023-12-18T05:13:58.248Z,1.21
2023-12-18T05:16:25.531Z,1.23
2023-12-18T05:18:54.301Z,1.24
2023-12-18T05:21:21.459Z,1.25
2023-12-18T05:23:50.373Z,1.26
2023-12-18T05:26:17.785Z,1.28
2023-12-18T05:28:44.827Z,1.29
2023-12-18T05:31:12.808Z,1.30
2023-12-18T05:33:40.748Z,1.31
2023-12-18T05:36:08.324Z,1.32
2023-12-18T05:38:35.606Z,1.34
2023-12-18T05:41:02.781Z,1.35
2023-12-18T05:43:29.814Z,1.36
2023-12-18T05:45:57.225Z,1.35
2023-12-18T05:48:24.722Z,1.34
2023-12-18T05:50:52.114Z,1.33
2023-12-18T05:53:19.376Z,1.33
2023-12-18T05:55:47.235Z,1.35
2023-12-18T05:58:14.432Z,1.35
2023-12-18T06:00:41.745Z,1.37
2023-12-18T06:03:08.983Z,1.38
2023-12-18T06:05:36.371Z,1.39
2023-12-18T06:08:04.540Z,1.39
2023-12-18T06:10:31.699Z,1.39
2023-12-18T06:12:59.141Z,1.40
2023-12-18T06:15:26.402Z,1.39
2023-12-18T06:17:53.545Z,1.39
2023-12-18T06:20:20.819Z,1.41
2023-12-18T06:22:47.985Z,1.41
2023-12-18T06:25:15.463Z,1.42
2023-12-18T06:27:45.106Z,1.42
2023-12-18T06:30:14.274Z,1.43
2023-12-18T06:32:42.392Z,1.42
2023-12-18T06:35:09.819Z,1.40
2023-12-18T06:37:37.026Z,1.40
2023-12-18T06:40:04.679Z,1.38
2023-12-18T06:42:31.688Z,1.39
2023-12-18T06:44:58.932Z,1.40
2023-12-18T06:47:26.312Z,1.43
2023-12-18T06:49:53.611Z,1.46
2023-12-18T06:52:20.710Z,1.48
2023-12-18T06:54:47.961Z,1.50
2023-12-18T06:57:16.979Z,1.52
2023-12-18T06:59:44.544Z,1.54
2023-12-18T07:02:11.887Z,1.55
2023-12-18T07:04:39.568Z,1.58
2023-12-18T07:07:08.146Z,1.61
2023-12-18T07:09:35.460Z,1.61
2023-12-18T07:12:03.184Z,1.64
2023-12-18T07:14:30.435Z,1.68
2023-12-18T07:16:57.424Z,1.71
2023-12-18T07:19:24.565Z,1.76
2023-12-18T07:21:51.912Z,1.79
2023-12-18T07:24:19.178Z,1.80
2023-12-18T07:26:46.314Z,1.81
2023-12-18T07:29:13.871Z,1.82
2023-12-18T07:31:41.377Z,1.83
2023-12-18T07:34:08.804Z,1.84
2023-12-18T07:36:40.051Z,1.86
2023-12-18T07:39:08.213Z,1.92
2023-12-18T07:41:35.441Z,1.95
2023-12-18T07:44:03.659Z,2.00
2023-12-18T07:46:30.932Z,2.04
2023-12-18T07:48:58.351Z,2.10
2023-12-18T07:51:25.657Z,2.14
2023-12-18T07:53:52.898Z,2.16
2023-12-18T07:56:20.047Z,2.18
2023-12-18T07:58:47.269Z,2.20
2023-12-18T08:01:20.467Z,2.24
2023-12-18T08:03:48.853Z,2.28
2023-12-18T08:06:16.095Z,2.30
2023-12-18T08:08:43.604Z,2.36
2023-12-18T08:11:10.967Z,2.42
2023-12-18T08:13:42.122Z,2.48
2023-12-18T08:16:11.830Z,2.54
2023-12-18T08:18:39.220Z,2.60
2023-12-18T08:21:06.490Z,2.64
2023-12-18T08:23:33.828Z,2.70
2023-12-18T08:26:01.173Z,2.77
2023-12-18T08:28:28.253Z,2.86
2023-12-18T08:30:55.376Z,2.94
2023-12-18T08:33:22.559Z,3.00
2023-12-18T08:35:50.709Z,3.05
2023-12-18T08:38:17.773Z,3.10
2023-12-18T08:40:46.348Z,3.14
2023-12-18T08:43:13.511Z,3.20
2023-12-18T08:45:41.353Z,3.24
2023-12-18T08:48:09.123Z,3.28
2023-12-18T08:50:36.476Z,3.33
2023-12-18T08:53:04.083Z,3.40
2023-12-18T08:55:32.826Z,3.44
2023-12-18T08:57:59.919Z,3.49
2023-12-18T09:00:27.539Z,3.52
2023-12-18T09:02:55.563Z,3.55
2023-12-18T09:05:22.851Z,3.56
2023-12-18T09:07:50.096Z,3.59
2023-12-18T09:10:18.868Z,3.66
2023-12-18T09:12:46.032Z,3.73
2023-12-18T09:15:15.899Z,3.77
2023-12-18T09:17:44.256Z,3.82
2023-12-18T09:20:11.916Z,3.84
2023-12-18T09:22:39.487Z,3.88
2023-12-18T09:25:07.069Z,3.88
2023-12-18T09:27:34.304Z,3.88
2023-12-18T09:30:01.846Z,3.91
2023-12-18T09:32:29.502Z,3.95
2023-12-18T09:34:56.944Z,4.00
2023-12-18T09:37:26.007Z,4.05
2023-12-18T09:39:53.376Z,4.19
2023-12-18T09:42:22.016Z,4.35
2023-12-18T09:44:50.497Z,4.46
2023-12-18T09:47:17.957Z,4.53
2023-12-18T09:49:45.988Z,4.63
2023-12-18T09:52:17.867Z,4.78
2023-12-18T09:54:46.842Z,4.91
2023-12-18T09:57:18.587Z,4.95
2023-12-18T09:59:46.309Z,4.98
2023-12-18T10:02:14.516Z,5.02
2023-12-18T10:04:43.115Z,5.17
2023-12-18T10:07:10.549Z,5.32
2023-12-18T10:09:37.960Z,5.45
2023-12-18T10:12:05.799Z,5.54
2023-12-18T10:14:34.641Z,5.58
2023-12-18T10:17:01.956Z,5.61
2023-12-18T10:19:29.400Z,5.68
2023-12-18T10:21:56.637Z,5.74
2023-12-18T10:24:23.852Z,5.82
2023-12-18T10:26:51.202Z,5.89
2023-12-18T10:29:18.759Z,5.98
2023-12-18T10:31:46.299Z,6.04
2023-12-18T10:34:18.131Z,5.99
2023-12-18T10:36:46.724Z,5.86
2023-12-18T10:39:19.493Z,5.79
2023-12-18T10:41:53.664Z,5.83
2023-12-18T10:44:23.946Z,5.87
2023-12-18T10:46:52.542Z,5.94
2023-12-18T10:49:21.452Z,6.00
2023-12-18T10:51:52.386Z,6.05
2023-12-18T10:54:20.694Z,6.10
2023-12-18T10:56:49.386Z,6.16
2023-12-18T10:59:19.517Z,6.24
2023-12-18T11:01:47.755Z,6.21
2023-12-18T11:04:17.265Z,6.23
2023-12-18T11:06:47.937Z,6.22
2023-12-18T11:09:15.175Z,6.07
2023-12-18T11:11:42.769Z,5.91
2023-12-18T11:14:18.414Z,5.83
2023-12-18T11:16:54.780Z,5.77
2023-12-18T11:19:46.319Z,5.82
2023-12-18T11:22:17.060Z,5.90
2023-12-18T11:24:46.979Z,5.93
2023-12-18T11:27:18.022Z,5.89
2023-12-18T11:29:49.017Z,5.83
2023-12-18T11:32:43.229Z,5.76
2023-12-18T11:35:12.437Z,5.68
2023-12-18T11:37:53.797Z,5.65
2023-12-18T11:40:31.803Z,5.65
2023-12-18T11:42:59.931Z,5.62
2023-12-18T11:45:28.221Z,5.69
2023-12-18T11:47:58.756Z,5.80
2023-12-18T11:50:27.721Z,5.87
2023-12-18T11:52:56.072Z,5.88
2023-12-18T11:55:42.199Z,5.93
2023-12-18T11:58:09.830Z,6.03
2023-12-18T12:00:38.970Z,6.06
2023-12-18T12:03:06.492Z,6.06
2023-12-18T12:05:34.175Z,6.01
2023-12-18T12:08:01.941Z,5.96
2023-12-18T12:10:29.207Z,5.92
2023-12-18T12:12:58.439Z,5.88
2023-12-18T12:15:26.085Z,5.85
2023-12-18T12:18:06.127Z,5.93
2023-12-18T12:20:34.273Z,6.02
2023-12-18T12:23:01.398Z,6.11
2023-12-18T12:25:29.100Z,6.19
2023-12-18T12:27:56.478Z,6.28
2023-12-18T12:30:24.203Z,6.39
2023-12-18T12:32:53.498Z,6.53
2023-12-18T12:35:21.108Z,6.63
2023-12-18T12:37:48.876Z,6.68
2023-12-18T12:40:16.234Z,6.71
2023-12-18T12:42:44.185Z,6.70
2023-12-18T12:45:11.906Z,6.66
2023-12-18T12:47:40.545Z,6.68
2023-12-18T12:50:09.058Z,6.75
2023-12-18T12:52:38.230Z,6.84
2023-12-18T12:55:06.538Z,6.86
2023-12-18T12:57:34.057Z,6.85
2023-12-18T13:00:01.823Z,6.87
2023-12-18T13:02:29.605Z,6.89
2023-12-18T13:04:57.232Z,6.99
2023-12-18T13:07:24.774Z,7.11
2023-12-18T13:09:52.866Z,7.24
2023-12-18T13:12:20.534Z,7.35
2023-12-18T13:14:50.056Z,7.46
2023-12-18T13:17:17.388Z,7.50
2023-12-18T13:19:44.805Z,7.56
2023-12-18T13:22:12.332Z,7.60
2023-12-18T13:24:39.654Z,7.63
2023-12-18T13:27:07.009Z,7.66
2023-12-18T13:29:34.494Z,7.70
2023-12-18T13:32:04.651Z,7.72
2023-12-18T13:34:32.912Z,7.75
2023-12-18T13:37:02.098Z,7.77
2023-12-18T13:39:29.717Z,7.76
2023-12-18T13:42:00.442Z,7.70
2023-12-18T13:44:29.391Z,7.58
2023-12-18T13:46:56.842Z,7.47
2023-12-18T13:49:24.195Z,7.37
2023-12-18T13:51:51.741Z,7.25
2023-12-18T13:54:22.268Z,7.12
2023-12-18T13:56:49.722Z,6.96
2023-12-18T13:59:16.852Z,6.77
2023-12-18T14:01:45.128Z,6.58
2023-12-18T14:04:12.824Z,6.41
2023-12-18T14:06:40.606Z,6.22
2023-12-18T14:09:10.327Z,6.02
2023-12-18T14:11:37.539Z,5.82
2023-12-18T14:14:04.760Z,5.63
2023-12-18T14:16:32.049Z,5.48
2023-12-18T14:18:59.656Z,5.34
2023-12-18T14:21:27.319Z,5.18
2023-12-18T14:23:54.710Z,4.92
2023-12-18T14:26:22.314Z,4.60
2023-12-18T14:28:49.846Z,4.28
2023-12-18T14:31:17.593Z,3.92
2023-12-18T14:33:45.021Z,3.60
2023-12-18T14:36:12.792Z,3.33
2023-12-18T14:38:40.031Z,3.10
2023-12-18T14:41:08.137Z,2.90
2023-12-18T14:43:35.869Z,2.71
2023-12-18T14:46:04.627Z,2.54
2023-12-18T14:48:35.724Z,2.37
2023-12-18T14:51:03.762Z,2.21
2023-12-18T14:53:30.946Z,2.07
2023-12-18T14:55:58.002Z,1.95
2023-12-18T14:58:25.505Z,1.84
2023-12-18T15:00:53.018Z,1.75
2023-12-18T15:03:20.734Z,1.66
2023-12-18T15:05:49.899Z,1.55
2023-12-18T15:08:17.776Z,1.43
2023-12-18T15:10:45.509Z,1.30
2023-12-18T15:13:13.376Z,1.21
2023-12-18T15:15:41.173Z,1.15
2023-12-18T15:18:08.732Z,1.11
2023-12-18T15:20:35.953Z,1.07
2023-12-18T15:23:03.519Z,1.02
2023-12-18T15:25:30.741Z,0.98
2023-12-18T15:27:58.208Z,0.95
2023-12-18T15:30:25.741Z,0.92
2023-12-18T15:32:53.292Z,0.89
2023-12-18T15:35:21.236Z,0.86
2023-12-18T15:37:48.870Z,0.83
2023-12-18T15:40:16.804Z,0.79
2023-12-18T15:42:44.275Z,0.74
2023-12-18T15:45:12.040Z,0.68
2023-12-18T15:47:39.713Z,0.64
2023-12-18T15:50:08.796Z,0.63
2023-12-18T15:52:36.405Z,0.61
2023-12-18T15:55:04.308Z,0.57
2023-12-18T15:57:32.066Z,0.56
2023-12-18T15:59:59.581Z,0.53
2023-12-18T16:02:27.165Z,0.50
2023-12-18T16:04:55.039Z,0.45
2023-12-18T16:07:22.581Z,0.40
2023-12-18T16:09:50.274Z,0.35
2023-12-18T16:12:19.231Z,0.29
2023-12-18T16:14:46.521Z,0.24
2023-12-18T16:17:13.981Z,0.16
2023-12-18T16:19:41.320Z,0.08
2023-12-18T16:22:08.652Z,0.02
2023-12-18T16:24:36.706Z,-0.04
2023-12-18T16:27:07.121Z,-0.09
2023-12-18T16:29:39.269Z,-0.14
2023-12-18T16:32:08.248Z,-0.18
2023-12-18T16:34:40.514Z,-0.20
2023-12-18T16:37:09.114Z,-0.20
2023-12-18T16:39:43.836Z,-0.22
2023-12-18T16:42:12.325Z,-0.22
2023-12-18T16:44:40.420Z,-0.22
2023-12-18T16:47:08.290Z,-0.21
2023-12-18T16:49:35.803Z,-0.22
2023-12-18T16:52:03.316Z,-0.22
2023-12-18T16:54:30.708Z,-0.24
2023-12-18T16:56:58.034Z,-0.27
2023-12-18T16:59:25.670Z,-0.34
2023-12-18T17:01:53.116Z,-0.42
2023-12-18T17:04:21.299Z,-0.45
2023-12-18T17:06:48.728Z,-0.49
2023-12-18T17:09:16.918Z,-0.51
2023-12-18T17:11:44.272Z,-0.59
2023-12-18T17:14:13.165Z,-0.60
2023-12-18T17:16:43.166Z,-0.62
2023-12-18T17:19:10.656Z,-0.67
2023-12-18T17:21:38.208Z,-0.74
2023-12-18T17:24:08.056Z,-0.79
2023-12-18T17:26:35.266Z,-0.85
2023-12-18T17:29:02.630Z,-0.92
2023-12-18T17:31:30.505Z,-1.00
2023-12-18T17:33:58.341Z,-1.07
2023-12-18T17:36:27.377Z,-1.10
2023-12-18T17:38:55.660Z,-1.14
2023-12-18T17:41:24.039Z,-1.16
2023-12-18T17:43:53.441Z,-1.19
2023-12-18T17:46:20.901Z,-1.23
2023-12-18T17:48:48.366Z,-1.26
2023-12-18T17:51:16.496Z,-1.25
2023-12-18T17:53:43.759Z,-1.24
2023-12-18T17:56:11.054Z,-1.24
2023-12-18T17:58:38.780Z,-1.23
2023-12-18T18:01:06.208Z,-1.22
2023-12-18T18:03:34.918Z,-1.26
2023-12-18T18:06:02.474Z,-1.28
2023-12-18T18:08:30.311Z,-1.30
2023-12-18T18:10:57.895Z,-1.32
2023-12-18T18:13:25.148Z,-1.30
2023-12-18T18:15:55.195Z,-1.28
2023-12-18T18:18:22.815Z,-1.27
2023-12-18T18:20:50.284Z,-1.27
2023-12-18T18:23:17.820Z,-1.26
2023-12-18T18:25:45.210Z,-1.26
2023-12-18T18:28:12.793Z,-1.32
2023-12-18T18:30:42.774Z,-1.38
2023-12-18T18:33:12.259Z,-1.45
2023-12-18T18:35:39.901Z,-1.50
2023-12-18T18:38:07.343Z,-1.57
2023-12-18T18:40:35.120Z,-1.64
2023-12-18T18:43:02.467Z,-1.69
2023-12-18T18:45:29.725Z,-1.70
2023-12-18T18:47:57.079Z,-1.71
2023-12-18T18:50:24.443Z,-1.74
2023-12-18T18:52:51.803Z,-1.77
2023-12-18T18:55:19.275Z,-1.77
2023-12-18T18:57:48.568Z,-1.78
2023-12-18T19:00:17.046Z,-1.81
2023-12-18T19:02:44.244Z,-1.84
2023-12-18T19:05:11.666Z,-1.85
2023-12-18T19:07:38.950Z,-1.84
2023-12-18T19:10:07.141Z,-1.83
2023-12-18T19:12:38.365Z,-1.88
2023-12-18T19:15:06.394Z,-1.92
2023-12-18T19:17:33.427Z,-1.90
2023-12-18T19:20:00.634Z,-1.89
2023-12-18T19:22:29.330Z,-1.89
2023-12-18T19:24:56.814Z,-1.93
2023-12-18T19:27:24.159Z,-1.99
2023-12-18T19:29:51.211Z,-2.03
2023-12-18T19:32:18.877Z,-2.05
2023-12-18T19:34:46.650Z,-2.07
2023-12-18T19:37:13.997Z,-2.09
2023-12-18T19:39:41.625Z,-2.11
2023-12-18T19:42:08.827Z,-2.10
2023-12-18T19:44:36.179Z,-2.10
2023-12-18T19:47:03.955Z,-2.11
2023-12-18T19:49:31.241Z,-2.11
2023-12-18T19:51:58.733Z,-2.10
2023-12-18T19:54:25.882Z,-2.07
2023-12-18T19:56:53.090Z,-2.03
2023-12-18T19:59:20.447Z,-2.01
2023-12-18T20:01:47.576Z,-1.97
2023-12-18T20:04:16.394Z,-1.93
2023-12-18T20:06:45.685Z,-1.88
2023-12-18T20:09:13.016Z,-1.82
2023-12-18T20:11:40.071Z,-1.77
2023-12-18T20:14:07.913Z,-1.72
2023-12-18T20:16:36.372Z,-1.66
2023-12-18T20:19:05.088Z,-1.60
2023-12-18T20:21:32.862Z,-1.52
2023-12-18T20:23:59.956Z,-1.45
2023-12-18T20:26:27.086Z,-1.37
2023-12-18T20:28:54.593Z,-1.31
2023-12-18T20:31:22.362Z,-1.25
2023-12-18T20:33:50.103Z,-1.20
2023-12-18T20:36:17.577Z,-1.16
2023-12-18T20:38:46.388Z,-1.11
2023-12-18T20:41:13.865Z,-1.06
2023-12-18T20:43:41.012Z,-1.02
2023-12-18T20:46:08.342Z,-0.97
2023-12-18T20:48:35.596Z,-0.92
2023-12-18T20:51:03.047Z,-0.88
2023-12-18T20:53:30.166Z,-0.87
2023-12-18T20:55:57.167Z,-0.88
2023-12-18T20:58:24.801Z,-0.87
2023-12-18T21:00:52.044Z,-0.87
2023-12-18T21:03:19.274Z,-0.85
2023-12-18T21:05:46.773Z,-0.82
2023-12-18T21:08:13.913Z,-0.79
2023-12-18T21:10:41.422Z,-0.73
2023-12-18T21:13:09.435Z,-0.69
2023-12-18T21:15:36.851Z,-0.65
2023-12-18T21:18:04.300Z,-0.61
2023-12-18T21:20:31.456Z,-0.58
2023-12-18T21:22:58.608Z,-0.55
2023-12-18T21:25:25.958Z,-0.53
2023-12-18T21:27:53.225Z,-0.52
2023-12-18T21:30:20.430Z,-0.56
2023-12-18T21:32:47.848Z,-0.59
2023-12-18T21:35:15.469Z,-0.62
2023-12-18T21:37:42.940Z,-0.65
2023-12-18T21:40:10.607Z,-0.64
2023-12-18T21:42:37.808Z,-0.60
2023-12-18T21:45:05.445Z,-0.59
2023-12-18T21:47:32.607Z,-0.61
2023-12-18T21:50:00.325Z,-0.63
2023-12-18T21:52:27.975Z,-0.65
2023-12-18T21:54:56.324Z,-0.63
2023-12-18T21:57:23.484Z,-0.60
2023-12-18T21:59:50.916Z,-0.57
2023-12-18T22:02:17.928Z,-0.53
2023-12-18T22:04:45.107Z,-0.49
2023-12-18T22:07:12.313Z,-0.45
2023-12-18T22:09:40.170Z,-0.41
2023-12-18T22:12:08.039Z,-0.37
2023-12-18T22:14:35.116Z,-0.33
2023-12-18T22:17:02.287Z,-0.32
2023-12-18T22:19:29.464Z,-0.32
2023-12-18T22:21:56.936Z,-0.32
2023-12-18T22:24:24.173Z,-0.30
2023-12-18T22:26:52.645Z,-0.29
2023-12-18T22:29:19.745Z,-0.30
2023-12-18T22:31:47.269Z,-0.30
2023-12-18T22:34:14.443Z,-0.28
2023-12-18T22:36:41.575Z,-0.24
2023-12-18T22:39:11.863Z,-0.22
2023-12-18T22:41:41.157Z,-0.23
2023-12-18T22:44:08.695Z,-0.25
2023-12-18T22:46:37.656Z,-0.26
2023-12-18T22:49:04.748Z,-0.24
2023-12-18T22:51:32.267Z,-0.21
2023-12-18T22:53:59.322Z,-0.18
2023-12-18T22:56:26.571Z,-0.16
2023-12-18T22:58:53.969Z,-0.12
2023-12-18T23:01:22.406Z,-0.09
2023-12-18T23:03:49.768Z,-0.06
2023-12-18T23:06:17.003Z,-0.05
2023-12-18T23:08:45.404Z,-0.03
2023-12-18T23:11:12.641Z,-0.01
2023-12-18T23:13:41.444Z,0.02
2023-12-18T23:16:08.421Z,0.01
2023-12-18T23:18:35.465Z,0.03
2023-12-18T23:21:06.191Z,0.05
2023-12-18T23:23:33.287Z,0.08
2023-12-18T23:26:00.647Z,0.10
2023-12-18T23:28:28.915Z,0.11
2023-12-18T23:30:56.048Z,0.13
2023-12-18T23:33:28.356Z,0.12
2023-12-18T23:35:59.277Z,0.09
2023-12-18T23:38:26.613Z,0.06
2023-12-18T23:40:54.047Z,0.04
2023-12-18T23:43:21.118Z,0.02
2023-12-18T23:45:48.209Z,-0.02
2023-12-18T23:48:15.430Z,-0.07
2023-12-18T23:50:44.693Z,-0.09
2023-12-18T23:53:13.182Z,-0.10
2023-12-18T23:55:40.514Z,-0.07
2023-12-18T23:58:07.864Z,-0.05
